createdAt,value
2022-11-29T00:01:39.236Z,97513.34
2022-11-29T00:04:06.805Z,97509.94
2022-11-29T00:06:35.272Z,97515.94
2022-11-29T00:09:07.968Z,97513.44
2022-11-29T00:11:56.239Z,97516.84
2022-11-29T00:14:25.234Z,97511.69
2022-11-29T00:16:56.313Z,97503.97
2022-11-29T00:19:23.510Z,97503.13
2022-11-29T00:21:50.513Z,97503.97
2022-11-29T00:24:17.869Z,97504.06
2022-11-29T00:26:44.625Z,97509.28
2022-11-29T00:29:13.062Z,97502.47
2022-11-29T00:31:41.046Z,97513.78
2022-11-29T00:34:10.598Z,97503.47
2022-11-29T00:36:37.436Z,97497.41
2022-11-29T00:39:05.594Z,97499.25
2022-11-29T00:41:32.828Z,97492.34
2022-11-29T00:43:59.559Z,97496.69
2022-11-29T00:46:26.344Z,97492.44
2022-11-29T00:48:53.198Z,97487.28
2022-11-29T00:51:20.017Z,97491.63
2022-11-29T00:53:46.931Z,97493.38
2022-11-29T00:56:13.761Z,97491.81
2022-11-29T00:58:43.430Z,97491.81
2022-11-29T01:01:12.271Z,97490.78
2022-11-29T01:03:39.576Z,97484.72
2022-11-29T01:06:18.100Z,97489.03
2022-11-29T01:08:45.705Z,97485.63
2022-11-29T01:11:27.129Z,97484.72
2022-11-29T01:13:59.056Z,97493.28
2022-11-29T01:16:28.430Z,97489.88
2022-11-29T01:18:56.060Z,97488.13
2022-11-29T01:21:24.737Z,97488.94
2022-11-29T01:23:53.597Z,97488.03
2022-11-29T01:26:26.530Z,97487.94
2022-11-29T01:28:56.058Z,97491.44
2022-11-29T01:31:27.493Z,97490.78
2022-11-29T01:34:01.279Z,97491.63
2022-11-29T01:36:29.074Z,97489.97
2022-11-29T01:38:58.429Z,97501.19
2022-11-29T01:41:29.893Z,97493.56
2022-11-29T01:44:07.022Z,97496.97
2022-11-29T01:46:40.760Z,97495.22
2022-11-29T01:49:33.797Z,97497.13
2022-11-29T01:52:06.540Z,97492.81
2022-11-29T01:54:43.880Z,97487.72
2022-11-29T01:57:12.901Z,97486.84
2022-11-29T01:59:46.950Z,97482.41
2022-11-29T02:02:20.596Z,97486.56
2022-11-29T02:04:48.655Z,97482.13
2022-11-29T02:07:15.804Z,97488.94
2022-11-29T02:09:44.828Z,97488.31
2022-11-29T02:12:36.692Z,97480.81
2022-11-29T02:15:10.108Z,97490.31
2022-11-29T02:18:15.423Z,97484.31
2022-11-29T02:21:03.857Z,97485.97
2022-11-29T02:23:51.044Z,97484.25
2022-11-29T02:27:05.215Z,97478.25
2022-11-29T02:30:02.992Z,97488.50
2022-11-29T02:33:24.378Z,97496.28
2022-11-29T02:36:15.057Z,97488.50
2022-11-29T02:39:08.317Z,97492.63
2022-11-29T02:41:56.457Z,97485.63
2022-11-29T02:44:40.791Z,97485.63
2022-11-29T02:47:36.725Z,97489.78
2022-11-29T02:50:42.633Z,97488.94
2022-11-29T02:53:22.931Z,97485.53
2022-11-29T02:56:01.543Z,97485.44
2022-11-29T02:58:45.452Z,97491.44
2022-11-29T03:01:37.290Z,97483.88
2022-11-29T03:04:49.256Z,97492.44
2022-11-29T03:07:31.499Z,97489.88
2022-11-29T03:10:23.078Z,97488.94
2022-11-29T03:12:53.810Z,97497.59
2022-11-29T03:15:43.997Z,97492.44
2022-11-29T03:18:41.333Z,97500.09
2022-11-29T03:21:49.934Z,97500.09
2022-11-29T03:24:36.895Z,97508.53
2022-11-29T03:27:40.971Z,97509.47
2022-11-29T03:30:13.751Z,97518.75
2022-11-29T03:32:52.641Z,97517.84
2022-11-29T03:35:39.902Z,97510.88
2022-11-29T03:38:16.605Z,97511.50
2022-11-29T03:41:00.003Z,97512.34
2022-11-29T03:43:33.734Z,97512.25
2022-11-29T03:46:11.207Z,97516.38
2022-11-29T03:48:47.070Z,97519.78
2022-11-29T03:51:41.269Z,97518.97
2022-11-29T03:54:14.876Z,97517.88
2022-11-29T03:56:42.456Z,97512.72
2022-11-29T03:59:45.827Z,97520.47
2022-11-29T04:03:05.140Z,97518.63
2022-11-29T04:05:50.911Z,97514.94
2022-11-29T04:08:57.469Z,97516.59
2022-11-29T04:12:06.232Z,97514.84
2022-11-29T04:15:19.542Z,97516.41
2022-11-29T04:17:58.652Z,97517.91
2022-11-29T04:20:44.100Z,97521.22
2022-11-29T04:23:26.035Z,97510.81
2022-11-29T04:26:30.816Z,97520.28
2022-11-29T04:29:12.040Z,97515.22
2022-11-29T04:31:59.980Z,97522.88
2022-11-29T04:35:06.553Z,97521.84
2022-11-29T04:37:54.931Z,97523.50
2022-11-29T04:40:45.436Z,97526.06
2022-11-29T04:44:08.603Z,97539.69
2022-11-29T04:46:52.333Z,97524.22
2022-11-29T04:49:29.203Z,97527.63
2022-11-29T04:52:33.824Z,97528.56
2022-11-29T04:55:43.985Z,97534.63
2022-11-29T04:59:03.591Z,97538.88
2022-11-29T05:02:08.139Z,97542.19
2022-11-29T05:05:09.879Z,97539.59
2022-11-29T05:08:01.010Z,97541.28
2022-11-29T05:11:01.981Z,97547.34
2022-11-29T05:14:00.084Z,97539.53
2022-11-29T05:16:53.622Z,97552.25
2022-11-29T05:19:53.776Z,97548.09
2022-11-29T05:22:40.622Z,97551.41
2022-11-29T05:25:38.371Z,97550.50
2022-11-29T05:28:33.593Z,97559.06
2022-11-29T05:31:30.655Z,97553.81
2022-11-29T05:34:45.464Z,97564.13
2022-11-29T05:38:01.475Z,97565.78
2022-11-29T05:41:16.792Z,97575.16
2022-11-29T05:44:33.298Z,97570.00
2022-11-29T05:47:06.644Z,97564.84
2022-11-29T05:50:15.053Z,97565.69
2022-11-29T05:53:29.840Z,97569.19
2022-11-29T05:56:45.917Z,97567.34
2022-11-29T05:59:33.361Z,97578.47
2022-11-29T06:02:32.986Z,97584.38
2022-11-29T06:05:34.276Z,97586.94
2022-11-29T06:08:34.731Z,97582.66
2022-11-29T06:11:27.900Z,97579.97
2022-11-29T06:14:37.712Z,97587.72
2022-11-29T06:17:42.199Z,97582.56
2022-11-29T06:20:24.144Z,97591.22
2022-11-29T06:23:02.002Z,97589.53
2022-11-29T06:26:12.103Z,97590.44
2022-11-29T06:29:27.733Z,97589.63
2022-11-29T06:32:47.962Z,97600.75
2022-11-29T06:35:35.537Z,97601.59
2022-11-29T06:38:28.068Z,97604.09
2022-11-29T06:41:01.835Z,97609.06
2022-11-29T06:43:30.593Z,97604.75
2022-11-29T06:46:33.632Z,97615.06
2022-11-29T06:49:14.108Z,97617.72
2022-11-29T06:52:30.805Z,97610.72
2022-11-29T06:55:42.709Z,97619.38
2022-11-29T06:58:35.982Z,97623.72
2022-11-29T07:01:39.817Z,97626.41
2022-11-29T07:04:45.502Z,97618.75
2022-11-29T07:07:22.163Z,97630.78
2022-11-29T07:09:54.810Z,97626.53
2022-11-29T07:12:22.214Z,97625.00
2022-11-29T07:14:49.302Z,97628.19
2022-11-29T07:17:30.050Z,97632.38
2022-11-29T07:20:47.185Z,97632.19
2022-11-29T07:23:34.865Z,97633.94
2022-11-29T07:26:34.314Z,97645.00
2022-11-29T07:29:25.271Z,97636.44
2022-11-29T07:32:06.543Z,97649.31
2022-11-29T07:34:48.858Z,97648.50
2022-11-29T07:37:15.597Z,97645.81
2022-11-29T07:40:03.914Z,97652.34
2022-11-29T07:43:02.073Z,97650.69
2022-11-29T07:45:32.443Z,97654.09
2022-11-29T07:47:59.543Z,97648.88
2022-11-29T07:50:27.813Z,97654.78
2022-11-29T07:52:56.286Z,97657.34
2022-11-29T07:55:25.877Z,97658.28
2022-11-29T07:57:53.268Z,97653.03
2022-11-29T08:00:20.884Z,97654.78
2022-11-29T08:02:50.432Z,97659.94
2022-11-29T08:05:17.870Z,97660.69
2022-11-29T08:07:44.977Z,97655.41
2022-11-29T08:10:16.156Z,97661.41
2022-11-29T08:12:51.776Z,97658.84
2022-11-29T08:15:21.167Z,97664.72
2022-11-29T08:17:49.507Z,97665.47
2022-11-29T08:20:17.200Z,97664.38
2022-11-29T08:22:44.097Z,97673.78
2022-11-29T08:25:12.109Z,97677.19
2022-11-29T08:27:39.458Z,97675.47
2022-11-29T08:30:07.851Z,97678.06
2022-11-29T08:32:34.886Z,97672.69
2022-11-29T08:35:01.710Z,97678.59
2022-11-29T08:37:28.556Z,97679.31
2022-11-29T08:39:58.952Z,97684.41
2022-11-29T08:42:25.921Z,97682.69
2022-11-29T08:44:52.697Z,97686.91
2022-11-29T08:47:37.953Z,97683.50
2022-11-29T08:50:17.507Z,97690.22
2022-11-29T08:53:06.409Z,97689.22
2022-11-29T08:55:42.660Z,97691.88
2022-11-29T08:58:13.790Z,97690.88
2022-11-29T09:00:43.601Z,97699.34
2022-11-29T09:03:28.812Z,97687.28
2022-11-29T09:05:55.891Z,97696.56
2022-11-29T09:08:22.685Z,97711.13
2022-11-29T09:10:49.611Z,97704.91
2022-11-29T09:13:18.076Z,97715.03
2022-11-29T09:15:44.969Z,97709.78
2022-11-29T09:18:11.821Z,97714.75
2022-11-29T09:20:43.788Z,97718.25
2022-11-29T09:23:12.076Z,97714.94
2022-11-29T09:25:38.912Z,97719.91
2022-11-29T09:28:05.719Z,97715.56
2022-11-29T09:30:33.956Z,97725.66
2022-11-29T09:33:04.953Z,97724.63
2022-11-29T09:35:32.832Z,97723.59
2022-11-29T09:37:59.819Z,97724.19
2022-11-29T09:40:37.043Z,97719.09
2022-11-29T09:43:40.886Z,97722.34
2022-11-29T09:46:18.676Z,97724.81
2022-11-29T09:48:58.016Z,97723.78
2022-11-29T09:51:52.985Z,97719.25
2022-11-29T09:54:37.497Z,97720.88
2022-11-29T09:57:10.534Z,97736.34
2022-11-29T09:59:47.865Z,97727.69
2022-11-29T10:02:23.369Z,97724.91
2022-11-29T10:05:01.195Z,97718.09
2022-11-29T10:07:49.208Z,97730.06
2022-11-29T10:10:29.452Z,97732.47
2022-11-29T10:13:11.135Z,97728.13
2022-11-29T10:15:46.179Z,97731.63
2022-11-29T10:18:44.008Z,97721.31
2022-11-29T10:21:31.194Z,97734.13
2022-11-29T10:24:06.629Z,97729.53
2022-11-29T10:26:35.317Z,97726.75
2022-11-29T10:29:04.670Z,97733.38
2022-11-29T10:31:43.839Z,97735.88
2022-11-29T10:34:18.070Z,97728.00
2022-11-29T10:36:59.385Z,97732.16
2022-11-29T10:39:50.693Z,97726.63
2022-11-29T10:42:46.819Z,97723.75
2022-11-29T10:48:21.446Z,97712.31
2022-11-29T10:50:50.980Z,97718.41
2022-11-29T10:53:24.894Z,97723.28
2022-11-29T10:56:03.960Z,97726.59
2022-11-29T10:58:32.258Z,97728.91
2022-11-29T11:01:07.839Z,97731.94
2022-11-29T11:03:52.778Z,97731.88
2022-11-29T11:06:51.359Z,97724.41
2022-11-29T11:09:37.827Z,97733.25
2022-11-29T11:12:21.283Z,97733.25
2022-11-29T11:14:48.792Z,97734.00
2022-11-29T11:17:32.593Z,97734.81
2022-11-29T11:20:20.102Z,97736.31
2022-11-29T11:23:29.597Z,97738.91
2022-11-29T11:26:09.905Z,97739.72
2022-11-29T11:28:55.577Z,97743.03
2022-11-29T11:31:38.084Z,97742.22
2022-11-29T11:34:36.748Z,97747.38
2022-11-29T11:37:15.734Z,97743.88
2022-11-29T11:39:45.688Z,97742.13
2022-11-29T11:42:36.711Z,97740.34
2022-11-29T11:45:12.496Z,97747.81
2022-11-29T11:47:49.414Z,97752.00
2022-11-29T11:50:32.471Z,97751.78
2022-11-29T11:53:17.526Z,97745.50
2022-11-29T11:56:06.821Z,97746.13
2022-11-29T11:58:51.567Z,97746.78
2022-11-29T12:01:37.745Z,97748.34
2022-11-29T12:04:35.513Z,97748.53
2022-11-29T12:07:29.607Z,97749.47
2022-11-29T12:10:15.721Z,97747.50
2022-11-29T12:12:45.274Z,97751.84
2022-11-29T12:15:28.330Z,97753.41
2022-11-29T12:18:30.665Z,97754.53
2022-11-29T12:21:13.048Z,97753.63
2022-11-29T12:23:57.848Z,97754.44
2022-11-29T12:26:57.366Z,97751.03
2022-11-29T12:29:31.438Z,97750.19
2022-11-29T12:32:40.310Z,97750.09
2022-11-29T12:35:38.987Z,97758.59
2022-11-29T12:38:17.990Z,97746.50
2022-11-29T12:41:16.603Z,97757.56
2022-11-29T12:44:18.070Z,97746.28
2022-11-29T12:47:34.472Z,97761.69
2022-11-29T12:50:05.029Z,97765.41
2022-11-29T12:52:39.226Z,97754.25
2022-11-29T12:55:26.157Z,97760.97
2022-11-29T12:58:06.786Z,97771.16
2022-11-29T13:01:03.038Z,97771.78
2022-11-29T13:04:03.748Z,97773.53
2022-11-29T13:07:12.845Z,97769.91
2022-11-29T13:10:20.979Z,97777.56
2022-11-29T13:13:08.193Z,97776.66
2022-11-29T13:15:46.566Z,97778.31
2022-11-29T13:18:39.717Z,97779.22
2022-11-29T13:21:40.080Z,97777.38
2022-11-29T13:24:18.566Z,97778.31
2022-11-29T13:26:46.030Z,97786.38
2022-11-29T13:29:18.023Z,97782.22
2022-11-29T13:31:47.275Z,97782.31
2022-11-29T13:34:31.985Z,97790.16
2022-11-29T13:37:18.937Z,97787.84
2022-11-29T13:40:39.916Z,97787.13
2022-11-29T13:43:40.550Z,97783.72
2022-11-29T13:46:33.157Z,97786.50
2022-11-29T13:48:59.977Z,97783.09
2022-11-29T13:51:37.821Z,97791.56
2022-11-29T13:54:33.749Z,97786.28
2022-11-29T13:57:09.716Z,97794.06
2022-11-29T13:59:45.781Z,97793.13
2022-11-29T14:02:31.311Z,97790.44
2022-11-29T14:04:58.770Z,97793.03
2022-11-29T14:07:25.638Z,97801.72
2022-11-29T14:10:28.496Z,97797.38
2022-11-29T14:12:59.750Z,97799.03
2022-11-29T14:15:31.110Z,97798.09
2022-11-29T14:18:08.053Z,97802.34
2022-11-29T14:20:44.049Z,97806.59
2022-11-29T14:23:37.121Z,97805.66
2022-11-29T14:26:03.864Z,97816.00
2022-11-29T14:28:40.973Z,97813.50
2022-11-29T14:31:10.304Z,97804.09
2022-11-29T14:34:04.620Z,97811.84
2022-11-29T14:36:52.005Z,97813.72
2022-11-29T14:39:42.501Z,97809.56
2022-11-29T14:42:21.994Z,97811.41
2022-11-29T14:44:54.557Z,97815.75
2022-11-29T14:47:48.548Z,97814.94
2022-11-29T14:50:48.130Z,97818.50
2022-11-29T14:53:34.144Z,97817.69
2022-11-29T14:56:34.905Z,97825.44
2022-11-29T14:59:42.907Z,97828.94
2022-11-29T15:02:38.418Z,97825.81
2022-11-29T15:05:43.256Z,97834.31
2022-11-29T15:08:27.744Z,97835.34
2022-11-29T15:11:13.172Z,97826.75
2022-11-29T15:13:58.990Z,97844.00
2022-11-29T15:16:55.497Z,97832.03
2022-11-29T15:19:46.203Z,97838.00
2022-11-29T15:22:19.054Z,97838.00
2022-11-29T15:25:10.793Z,97835.53
2022-11-29T15:27:48.700Z,97843.44
2022-11-29T15:30:30.363Z,97839.09
2022-11-29T15:33:00.697Z,97846.13
2022-11-29T15:35:28.306Z,97843.72
2022-11-29T15:37:56.058Z,97848.06
2022-11-29T15:40:31.385Z,97855.94
2022-11-29T15:43:26.353Z,97854.25
2022-11-29T15:45:56.720Z,97862.22
2022-11-29T15:48:30.545Z,97868.31
2022-11-29T15:51:30.018Z,97869.19
2022-11-29T15:54:13.042Z,97877.81
2022-11-29T15:56:54.347Z,97873.47
2022-11-29T15:59:28.956Z,97871.03
2022-11-29T16:02:02.386Z,97873.53
2022-11-29T16:04:31.107Z,97878.63
2022-11-29T16:06:58.250Z,97881.22
2022-11-29T16:09:40.609Z,97887.28
2022-11-29T16:12:16.863Z,97886.44
2022-11-29T16:14:57.808Z,97890.78
2022-11-29T16:17:34.842Z,97880.47
2022-11-29T16:20:24.649Z,97888.41
2022-11-29T16:23:13.660Z,97893.56
2022-11-29T16:25:58.559Z,97892.00
2022-11-29T16:28:34.356Z,97895.41
2022-11-29T16:31:01.624Z,97891.34
2022-11-29T16:33:28.934Z,97894.69
2022-11-29T16:36:13.694Z,97895.59
2022-11-29T16:38:47.477Z,97898.38
2022-11-29T16:41:35.832Z,97905.34
2022-11-29T16:44:06.380Z,97904.53
2022-11-29T16:46:41.406Z,97900.38
2022-11-29T16:49:33.854Z,97911.53
2022-11-29T16:52:03.386Z,97916.63
2022-11-29T16:54:35.511Z,97907.19
2022-11-29T16:57:06.609Z,97903.88
2022-11-29T16:59:35.321Z,97909.97
2022-11-29T17:02:02.830Z,97910.06
2022-11-29T17:04:29.939Z,97917.06
2022-11-29T17:06:57.578Z,97911.81
2022-11-29T17:09:32.528Z,97911.81
2022-11-29T17:12:01.435Z,97911.91
2022-11-29T17:14:29.434Z,97923.25
2022-11-29T17:16:56.413Z,97922.50
2022-11-29T17:19:23.968Z,97925.25
2022-11-29T17:21:52.722Z,97919.25
2022-11-29T17:24:23.220Z,97919.34
2022-11-29T17:26:50.737Z,97921.09
2022-11-29T17:29:18.983Z,97931.53
2022-11-29T17:31:47.348Z,97931.63
2022-11-29T17:34:14.413Z,97929.97
2022-11-29T17:36:41.596Z,97929.28
2022-11-29T17:39:08.901Z,97943.22
2022-11-29T17:41:35.918Z,97928.72
2022-11-29T17:44:03.041Z,97926.22
2022-11-29T17:46:34.836Z,97917.91
2022-11-29T17:49:05.775Z,97926.84
2022-11-29T17:54:22.650Z,97936.19
2022-11-29T17:56:50.020Z,97932.28
2022-11-29T17:59:17.079Z,97939.28
2022-11-29T18:01:46.783Z,97952.25
2022-11-29T18:04:13.686Z,97950.50
2022-11-29T18:06:41.410Z,97950.44
2022-11-29T18:09:11.047Z,97951.09
2022-11-29T18:11:47.377Z,97955.19
2022-11-29T18:14:28.031Z,97957.59
2022-11-29T18:16:54.994Z,97960.16
2022-11-29T18:19:23.341Z,97958.50
2022-11-29T18:21:51.588Z,97968.81
2022-11-29T18:24:19.041Z,97970.47
2022-11-29T18:26:46.043Z,97972.25
2022-11-29T18:29:13.092Z,97960.16
2022-11-29T18:31:44.570Z,97959.25
2022-11-29T18:34:13.648Z,97965.16
2022-11-29T18:36:47.663Z,97953.84
2022-11-29T18:39:21.798Z,97957.00
2022-11-29T18:41:50.628Z,97956.16
2022-11-29T18:44:21.854Z,97952.19
2022-11-29T18:49:30.175Z,97949.09
2022-11-29T18:51:56.898Z,97961.16
2022-11-29T18:54:23.705Z,97963.19
2022-11-29T18:56:51.702Z,97967.66
2022-11-29T18:59:18.522Z,97967.00
2022-11-29T19:01:48.024Z,97960.34
2022-11-29T19:04:21.062Z,97967.50
2022-11-29T19:06:48.928Z,97968.50
2022-11-29T19:09:21.861Z,97976.25
2022-11-29T19:11:49.661Z,97977.91
2022-11-29T19:14:17.040Z,97989.16
2022-11-29T19:16:46.984Z,97992.56
2022-11-29T19:19:13.962Z,97989.16
2022-11-29T19:21:41.963Z,97995.13
2022-11-29T19:24:14.660Z,97986.41
2022-11-29T19:26:45.151Z,97982.00
2022-11-29T19:29:14.095Z,97994.97
2022-11-29T19:31:42.260Z,97987.41
2022-11-29T19:34:09.221Z,97985.81
2022-11-29T19:36:42.199Z,97985.97
2022-11-29T19:39:11.922Z,97990.28
2022-11-29T19:41:46.559Z,97975.72
2022-11-29T19:44:14.115Z,97986.06
2022-11-29T19:46:44.567Z,97990.28
2022-11-29T19:49:15.869Z,97987.81
2022-11-29T19:51:46.679Z,97984.44
2022-11-29T19:56:55.740Z,97982.63
2022-11-29T19:59:22.978Z,97982.69
2022-11-29T20:01:49.979Z,97973.38
2022-11-29T20:04:17.750Z,97983.78
2022-11-29T20:06:44.742Z,97993.44
2022-11-29T20:09:14.709Z,97986.78
2022-11-29T20:11:41.654Z,97990.25
2022-11-29T20:14:11.331Z,97985.09
2022-11-29T20:16:38.932Z,97982.38
2022-11-29T20:19:15.956Z,97983.31
2022-11-29T20:21:48.678Z,97984.34
2022-11-29T20:24:17.273Z,97979.28
2022-11-29T20:26:47.911Z,97980.13
2022-11-29T20:29:15.812Z,97989.69
2022-11-29T20:31:50.251Z,97993.34
2022-11-29T20:34:20.066Z,97997.75
2022-11-29T20:37:02.159Z,98001.25
2022-11-29T20:39:54.574Z,98005.41
2022-11-29T20:42:44.530Z,98013.06
2022-11-29T20:45:13.959Z,98001.91
2022-11-29T20:47:45.004Z,98009.75
2022-11-29T20:50:24.225Z,98010.78
2022-11-29T20:53:30.517Z,98010.03
2022-11-29T20:55:57.976Z,98004.81
2022-11-29T20:58:26.317Z,98006.47
2022-11-29T21:00:55.125Z,98008.22
2022-11-29T21:03:24.159Z,98022.03
2022-11-29T21:05:53.006Z,98032.34
2022-11-29T21:08:21.876Z,98027.19
2022-11-29T21:10:50.576Z,98023.63
2022-11-29T21:13:20.193Z,98040.81
2022-11-29T21:15:48.303Z,98039.16
2022-11-29T21:18:24.501Z,98025.34
2022-11-29T21:26:57.086Z,98042.53
2022-11-29T21:29:24.908Z,98048.56
2022-11-29T21:31:54.305Z,98051.00
2022-11-29T21:34:22.617Z,98037.19
2022-11-29T21:37:00.152Z,98047.34
2022-11-29T21:39:34.138Z,98054.16
2022-11-29T21:42:02.724Z,98057.41
2022-11-29T21:44:29.698Z,98053.03
2022-11-29T21:46:56.536Z,98045.28
2022-11-29T21:52:15.396Z,98047.63
2022-11-29T21:54:46.305Z,98055.38
2022-11-29T21:57:14.112Z,98053.69
2022-11-29T21:59:40.975Z,98045.97
2022-11-29T22:02:08.119Z,98052.78
2022-11-29T22:04:35.026Z,98045.88
2022-11-29T22:07:02.375Z,98045.03
2022-11-29T22:09:33.534Z,98050.19
2022-11-29T22:12:25.838Z,98045.88
2022-11-29T22:14:51.008Z,98050.13
2022-11-29T22:17:17.842Z,98055.19
2022-11-29T22:19:44.677Z,98049.28
2022-11-29T22:22:11.782Z,98052.94
2022-11-29T22:24:40.569Z,98052.03
2022-11-29T22:27:07.437Z,98060.44
2022-11-29T22:29:41.963Z,98060.44
2022-11-29T22:32:08.877Z,98057.84
2022-11-29T22:34:35.707Z,98054.53
2022-11-29T22:37:02.471Z,98054.53
2022-11-29T22:39:29.333Z,98058.84
2022-11-29T22:41:56.244Z,98068.44
2022-11-29T22:44:24.190Z,98057.19
2022-11-29T22:46:51.708Z,98064.03
2022-11-29T22:49:18.818Z,98058.78
2022-11-29T22:51:47.487Z,98061.28
2022-11-29T22:54:18.261Z,98062.19
2022-11-29T22:56:46.517Z,98068.84
2022-11-29T22:59:13.822Z,98062.19
2022-11-29T23:01:42.188Z,98061.19
2022-11-29T23:04:11.349Z,98067.19
2022-11-29T23:06:45.125Z,98058.69
2022-11-29T23:09:21.145Z,98063.69
2022-11-29T23:11:55.640Z,98061.00
2022-11-29T23:14:23.677Z,98058.38
2022-11-29T23:16:50.652Z,98060.03
2022-11-29T23:19:17.734Z,98064.28
2022-11-29T23:21:45.758Z,98064.28
2022-11-29T23:24:15.945Z,98058.22
2022-11-29T23:26:46.767Z,98056.47
2022-11-29T23:29:18.071Z,98049.59
2022-11-29T23:31:46.582Z,98054.81
2022-11-29T23:34:14.331Z,98045.31
2022-11-29T23:36:41.631Z,98053.06
2022-11-29T23:39:09.024Z,98048.81
2022-11-29T23:41:36.979Z,98053.97
2022-11-29T23:44:09.192Z,98059.03
2022-11-29T23:46:36.349Z,98049.66
2022-11-29T23:49:03.707Z,98050.41
2022-11-29T23:51:30.909Z,98039.28
2022-11-29T23:53:57.717Z,98047.00
2022-11-29T23:56:24.632Z,98045.53
2022-11-29T23:58:51.588Z,98042.13
